Terminal Aerodrome Forecast
Issued by NWS

Home | Current Version | Previous Version | Text Only | Print | Product List | Glossary On
Versions: 1 2 3 4 5 6 7 8 9 10 11 12 13 14 15
000
FTUS44 KHGX 201722
TAFSGR
TAF
KSGR 201722Z 2018/2118 13012KT P6SM SCT070 SCT250
     FM210100 VRB03KT P6SM SCT100
     FM210900 VRB03KT 4SM BR SCT006 SCT100
      TEMPO 2110/2112 2SM BR BKN004
     FM211500 17007KT P6SM SCT012 SCT250=

USA.gov is the U.S. government's official web portal to all federal, state and local government web resources and services.